Time;durP1;ratioP1;P1;durP2;ratioP2;P2;SDS_P1;SDS_P2;PMS_P1;PMS_P2;Temp;Humidity;BMP_temperature;BMP_pressure;BME280_temperature;BME280_humidity;BME280_pressure;Samples;Min_cycle;Max_cycle;Signal;HPM_P1;HPM_P2
2022/07/06 00:00:58;;;;;;;11.05;4.10;;;;;;;14.92;59.76;102053.34;5135870;27;20109;-49
2022/07/06 00:03:24;;;;;;;16.50;3.85;;;;;;;15.07;59.22;102059.00;5135607;27;20067;-51
2022/07/06 00:05:51;;;;;;;15.18;4.60;;;;;;;14.96;59.59;102066.25;5136128;27;20047;-50
2022/07/06 00:08:18;;;;;;;10.35;4.05;;;;;;;14.85;59.96;102063.78;5136304;27;20075;-50
2022/07/06 00:10:44;;;;;;;15.05;4.32;;;;;;;14.95;60.13;102061.91;5135806;27;20385;-50
2022/07/06 00:13:11;;;;;;;12.85;4.28;;;;;;;14.87;59.80;102056.47;5136184;27;20115;-50
2022/07/06 00:15:38;;;;;;;14.68;4.32;;;;;;;14.89;59.84;102056.31;5135815;27;20070;-52
2022/07/06 00:18:04;;;;;;;11.85;4.35;;;;;;;14.89;59.79;102054.47;5117703;27;20070;-48
2022/07/06 00:20:31;;;;;;;13.32;4.00;;;;;;;14.80;59.88;102054.53;5136000;27;20369;-49
2022/07/06 00:22:58;;;;;;;12.07;4.13;;;;;;;14.80;60.21;102062.56;5135833;27;20092;-48
2022/07/06 00:25:24;;;;;;;11.60;3.70;;;;;;;14.71;60.56;102062.44;5116417;27;20532;-49
2022/07/06 00:27:51;;;;;;;14.32;3.80;;;;;;;14.57;60.37;102050.44;5119529;27;20085;-49
2022/07/06 00:30:17;;;;;;;10.90;3.70;;;;;;;14.67;60.41;102058.41;5114775;28;20047;-48
2022/07/06 00:32:44;;;;;;;16.10;3.58;;;;;;;14.55;60.80;102054.22;5115070;28;20040;-49
2022/07/06 00:35:11;;;;;;;10.77;3.60;;;;;;;14.74;60.51;102054.16;5115164;28;20035;-48
2022/07/06 00:37:39;;;;;;;13.95;3.97;;;;;;;14.64;60.33;102052.53;5115353;28;20051;-49
2022/07/06 00:40:07;;;;;;;11.93;4.20;;;;;;;14.63;60.34;102051.69;5115218;28;20674;-49
2022/07/06 00:42:41;;;;;;;9.00;3.80;;;;;;;14.48;61.03;102053.97;5114998;28;20096;-51
2022/07/06 00:45:09;;;;;;;9.98;4.10;;;;;;;14.54;60.65;102052.53;5115198;28;20075;-49
2022/07/06 00:47:36;;;;;;;13.43;3.95;;;;;;;14.54;61.25;102056.06;5114839;28;20044;-49
2022/07/06 00:50:36;;;;;;;11.18;3.92;;;;;;;14.69;60.55;102055.59;5115037;28;20047;-49
2022/07/06 00:52:56;;;;;;;15.82;4.25;;;;;;;14.70;60.84;102057.28;5114443;28;20049;-50
2022/07/06 00:55:26;;;;;;;14.52;4.90;;;;;;;14.65;60.42;102059.56;5114678;28;20409;-48
2022/07/06 00:57:53;;;;;;;8.60;4.05;;;;;;;14.73;61.03;102060.47;5115017;28;20127;-52
2022/07/06 01:00:23;;;;;;;9.48;3.80;;;;;;;14.69;60.38;102067.09;5114261;28;20118;-51
2022/07/06 01:02:50;;;;;;;11.02;4.25;;;;;;;14.59;60.93;102069.84;5075452;28;20037;-50
2022/07/06 01:05:17;;;;;;;11.38;4.28;;;;;;;14.37;61.47;102065.69;5074591;28;20056;-50
2022/07/06 01:07:46;;;;;;;14.85;4.78;;;;;;;14.27;61.52;102064.03;5077572;28;20439;-50
2022/07/06 01:10:15;;;;;;;14.98;4.50;;;;;;;14.32;61.17;102070.63;5092834;28;20142;-50
2022/07/06 01:12:43;;;;;;;10.88;4.45;;;;;;;14.37;61.36;102068.34;5094105;28;20032;-50
2022/07/06 01:15:13;;;;;;;11.93;4.30;;;;;;;14.16;62.05;102065.06;5093869;28;20101;-51
2022/07/06 01:17:42;;;;;;;10.38;4.15;;;;;;;14.36;61.42;102057.81;5093874;28;20432;-52
2022/07/06 01:20:20;;;;;;;13.57;4.15;;;;;;;14.21;61.86;102066.31;5088010;28;20468;-50
2022/07/06 01:22:48;;;;;;;10.40;4.00;;;;;;;14.14;62.02;102061.69;5073520;28;20382;-52
2022/07/06 01:25:16;;;;;;;13.18;4.35;;;;;;;14.34;61.46;102060.63;5073290;28;20037;-52
2022/07/06 01:27:43;;;;;;;11.70;4.43;;;;;;;14.15;62.25;102061.56;5073536;28;20409;-52
2022/07/06 01:30:12;;;;;;;12.07;4.80;;;;;;;14.12;62.65;102067.19;5073609;28;20048;-51
2022/07/06 01:32:40;;;;;;;13.27;4.50;;;;;;;14.15;63.28;102063.38;5073503;28;20090;-53
2022/07/06 01:35:09;;;;;;;12.10;4.45;;;;;;;14.20;63.31;102069.94;5072774;28;20094;-52
2022/07/06 01:37:36;;;;;;;11.48;4.40;;;;;;;14.29;62.83;102072.75;5073138;28;20140;-51
2022/07/06 01:40:06;;;;;;;12.88;5.30;;;;;;;14.27;63.02;102064.03;5073385;28;20375;-52
2022/07/06 01:42:34;;;;;;;13.05;4.80;;;;;;;14.28;62.65;102066.56;5077251;28;20048;-49
2022/07/06 01:45:02;;;;;;;16.25;5.10;;;;;;;14.27;63.18;102064.03;5072977;28;20045;-50
2022/07/06 01:47:29;;;;;;;13.50;4.53;;;;;;;13.94;63.65;102064.41;5072084;28;20047;-49
2022/07/06 01:49:59;;;;;;;10.50;5.10;;;;;;;14.05;63.91;102055.41;5073233;28;20102;-50
2022/07/06 01:52:27;;;;;;;11.07;5.00;;;;;;;14.06;63.78;102054.44;5073082;28;20049;-49
2022/07/06 01:54:56;;;;;;;11.93;4.93;;;;;;;14.00;63.78;102049.66;5078623;28;20071;-52
2022/07/06 01:57:23;;;;;;;10.98;4.80;;;;;;;14.02;64.17;102055.69;5081210;28;20056;-48
2022/07/06 01:59:50;;;;;;;13.50;5.00;;;;;;;14.02;63.78;102061.00;5073357;28;20056;-50
2022/07/06 02:02:18;;;;;;;10.45;4.90;;;;;;;13.88;64.38;102061.47;5104958;28;20517;-49
2022/07/06 02:04:45;;;;;;;12.60;5.53;;;;;;;13.86;64.07;102058.09;5112044;28;20055;-49
2022/07/06 02:07:11;;;;;;;14.02;5.28;;;;;;;13.93;64.74;102053.88;5119412;28;20047;-49
2022/07/06 02:09:38;;;;;;;11.82;5.20;;;;;;;13.83;64.18;102044.06;5095259;28;20048;-51
2022/07/06 02:12:05;;;;;;;14.75;5.53;;;;;;;13.67;65.07;102056.31;5127087;28;20100;-49
2022/07/06 02:14:32;;;;;;;11.57;5.00;;;;;;;13.62;65.64;102052.28;5134106;28;20053;-50
2022/07/06 02:16:59;;;;;;;12.15;5.20;;;;;;;13.58;65.87;102053.50;5116208;28;20043;-49
2022/07/06 02:19:26;;;;;;;12.10;4.75;;;;;;;13.70;65.91;102056.88;5133846;28;20043;-48
2022/07/06 02:21:52;;;;;;;15.90;5.72;;;;;;;13.62;65.89;102054.94;5134113;28;20534;-49
2022/07/06 02:24:19;;;;;;;11.40;4.70;;;;;;;13.71;66.06;102068.38;5120027;28;20055;-50
2022/07/06 02:26:46;;;;;;;12.75;5.35;;;;;;;13.71;65.91;102055.88;5113425;28;20055;-50
2022/07/06 02:29:13;;;;;;;16.98;5.18;;;;;;;13.57;66.53;102061.66;5113204;28;20074;-52
2022/07/06 02:31:40;;;;;;;14.25;5.28;;;;;;;13.52;66.47;102053.25;5112952;28;20485;-49
2022/07/06 02:34:07;;;;;;;11.90;5.18;;;;;;;13.63;66.30;102061.09;5113440;28;20074;-50
2022/07/06 02:36:33;;;;;;;14.70;4.57;;;;;;;13.68;65.87;102050.84;5113372;28;20134;-49
2022/07/06 02:39:00;;;;;;;13.43;5.05;;;;;;;13.60;66.84;102048.88;5113350;28;20105;-49
2022/07/06 02:41:29;;;;;;;13.35;5.15;;;;;;;13.56;66.52;102050.16;5113305;28;20485;-51
2022/07/06 02:43:56;;;;;;;15.32;4.53;;;;;;;13.44;67.46;102044.13;5113394;28;20040;-50
2022/07/06 02:46:22;;;;;;;11.75;4.75;;;;;;;13.44;67.89;102043.28;5113451;28;20047;-51
2022/07/06 02:48:50;;;;;;;13.23;4.80;;;;;;;13.54;67.23;102049.47;5115105;28;20048;-51
2022/07/06 02:51:17;;;;;;;11.75;4.43;;;;;;;13.51;67.37;102047.06;5117088;28;20492;-50
2022/07/06 02:53:44;;;;;;;15.20;5.13;;;;;;;13.51;67.59;102049.72;5117028;28;20043;-50
2022/07/06 02:56:10;;;;;;;16.05;4.80;;;;;;;13.42;67.27;102056.78;5133263;27;20129;-50
2022/07/06 02:58:37;;;;;;;13.95;4.72;;;;;;;13.43;67.43;102057.59;5137384;27;20505;-50
2022/07/06 03:01:04;;;;;;;13.20;4.82;;;;;;;13.46;67.25;102059.13;5120831;27;20051;-49
2022/07/06 03:03:32;;;;;;;20.27;4.90;;;;;;;13.39;68.14;102059.72;5116369;28;20093;-51
2022/07/06 03:06:00;;;;;;;11.85;4.47;;;;;;;13.41;68.19;102067.56;5116946;28;20375;-50
2022/07/06 03:08:29;;;;;;;11.27;4.68;;;;;;;13.34;68.60;102072.59;5116865;28;20072;-50
2022/07/06 03:10:55;;;;;;;13.27;4.57;;;;;;;13.44;67.87;102069.94;5117002;28;20048;-50
2022/07/06 03:13:23;;;;;;;14.77;4.75;;;;;;;13.38;67.87;102076.66;5116939;28;20040;-51
2022/07/06 03:15:50;;;;;;;15.70;4.63;;;;;;;13.37;68.09;102075.00;5116787;28;20048;-50
2022/07/06 03:18:17;;;;;;;15.02;5.40;;;;;;;13.27;68.71;102075.94;5116634;28;20043;-50
2022/07/06 03:20:44;;;;;;;16.13;5.32;;;;;;;13.21;68.72;102078.19;5116872;28;20096;-50
2022/07/06 03:23:13;;;;;;;10.30;4.88;;;;;;;13.21;68.97;102077.34;5116227;28;20050;-49
2022/07/06 03:25:40;;;;;;;15.25;5.20;;;;;;;13.28;68.89;102077.59;5116549;28;20043;-51
2022/07/06 03:28:07;;;;;;;11.10;5.05;;;;;;;13.20;69.07;102072.97;5116565;28;20122;-50
2022/07/06 03:30:34;;;;;;;17.60;4.90;;;;;;;13.29;68.68;102068.66;5116156;28;20047;-53
2022/07/06 03:33:01;;;;;;;15.40;4.50;;;;;;;13.21;68.80;102070.19;5117924;27;20044;-49
2022/07/06 03:35:29;;;;;;;12.65;4.90;;;;;;;13.22;69.36;102071.03;5116763;27;20447;-50
2022/07/06 03:37:56;;;;;;;13.18;5.05;;;;;;;13.24;69.14;102067.25;5122079;27;20050;-50
2022/07/06 03:40:26;;;;;;;14.63;5.30;;;;;;;13.21;68.87;102074.69;5137827;27;20112;-52
2022/07/06 03:42:53;;;;;;;12.02;5.28;;;;;;;13.25;68.95;102065.41;5129569;27;20044;-51
2022/07/06 03:45:20;;;;;;;14.55;5.40;;;;;;;13.28;69.46;102078.47;5115791;28;20126;-49
2022/07/06 03:47:47;;;;;;;11.70;5.10;;;;;;;13.24;69.43;102072.59;5115540;28;20067;-50
2022/07/06 03:50:15;;;;;;;13.25;5.00;;;;;;;13.18;69.64;102075.78;5122855;27;20096;-50
2022/07/06 03:52:41;;;;;;;15.95;5.38;;;;;;;13.14;70.27;102073.56;5136341;27;20500;-53
2022/07/06 03:55:10;;;;;;;13.50;5.63;;;;;;;13.07;70.03;102081.25;5136474;27;20108;-49
2022/07/06 03:57:40;;;;;;;16.10;5.40;;;;;;;13.03;70.67;102079.84;5136224;27;20405;-49
2022/07/06 04:00:11;;;;;;;15.17;5.70;;;;;;;13.27;69.62;102081.28;5136469;27;20043;-50
2022/07/06 04:02:44;;;;;;;15.50;5.30;;;;;;;13.20;69.90;102080.97;5135833;27;20376;-51
2022/07/06 04:05:21;;;;;;;20.45;5.43;;;;;;;13.21;69.99;102080.84;5135528;27;20047;-50
2022/07/06 04:07:49;;;;;;;13.25;5.50;;;;;;;13.14;70.16;102078.88;5136387;27;20497;-49
2022/07/06 04:10:16;;;;;;;15.25;6.22;;;;;;;13.28;70.34;102078.47;5136283;27;20050;-50
2022/07/06 04:12:44;;;;;;;13.23;5.05;;;;;;;13.37;69.42;102080.34;5135833;27;20044;-50
2022/07/06 04:15:12;;;;;;;14.50;5.25;;;;;;;13.27;70.10;102082.09;5135715;27;20070;-50
2022/07/06 04:17:55;;;;;;;15.93;5.20;;;;;;;13.23;70.47;102083.38;5136153;27;20044;-49
2022/07/06 04:20:27;;;;;;;15.60;5.03;;;;;;;13.30;70.01;102080.97;5118481;27;20565;-51
2022/07/06 04:22:55;;;;;;;10.93;4.40;;;;;;;13.28;70.22;102077.59;5136045;27;20043;-51
2022/07/06 04:25:24;;;;;;;12.95;5.03;;;;;;;13.22;70.63;102076.34;5117643;27;20503;-50
2022/07/06 04:27:51;;;;;;;16.15;5.00;;;;;;;13.32;70.11;102085.22;5119641;27;20123;-50
2022/07/06 04:30:18;;;;;;;17.00;5.10;;;;;;;13.36;69.87;102080.47;5115136;28;20044;-51
2022/07/06 04:32:44;;;;;;;16.80;4.80;;;;;;;13.43;69.92;102084.25;5115004;28;20511;-49
2022/07/06 04:35:12;;;;;;;13.75;4.55;;;;;;;13.58;69.68;102082.00;5117948;27;20043;-51
2022/07/06 04:37:40;;;;;;;11.38;4.55;;;;;;;13.70;68.68;102088.88;5115947;27;20142;-51
2022/07/06 04:40:07;;;;;;;17.00;5.35;;;;;;;13.60;68.65;102088.03;5115328;28;20093;-51
2022/07/06 04:42:37;;;;;;;14.70;4.93;;;;;;;13.59;69.46;102089.88;5134857;27;20043;-51
2022/07/06 04:45:06;;;;;;;11.82;4.55;;;;;;;13.77;68.74;102089.13;5135641;27;20073;-50
2022/07/06 04:47:33;;;;;;;13.73;5.32;;;;;;;13.66;68.76;102092.81;5135378;27;20096;-51
2022/07/06 04:50:00;;;;;;;12.05;4.72;;;;;;;13.70;68.31;102088.88;5135283;27;20069;-50
2022/07/06 04:52:28;;;;;;;15.57;4.80;;;;;;;13.81;67.94;102086.06;5134795;27;20039;-51
2022/07/06 04:54:55;;;;;;;17.02;4.75;;;;;;;13.91;67.96;102079.84;5114601;28;20448;-50
2022/07/06 04:57:22;;;;;;;12.85;5.13;;;;;;;13.67;68.14;102083.00;5114293;28;20394;-53
2022/07/06 04:59:49;;;;;;;16.08;4.78;;;;;;;13.78;67.87;102081.00;5114690;28;20550;-50
2022/07/06 05:02:16;;;;;;;12.93;5.22;;;;;;;14.02;66.96;102085.03;5113973;28;20052;-53
2022/07/06 05:04:43;;;;;;;16.02;4.60;;;;;;;13.87;67.56;102089.16;5114054;28;20043;-49
2022/07/06 05:07:10;;;;;;;25.20;6.00;;;;;;;13.87;68.33;102092.66;5114571;28;20089;-49
2022/07/06 05:09:37;;;;;;;18.10;5.40;;;;;;;14.10;67.66;102093.16;5114612;28;20537;-50
2022/07/06 05:12:04;;;;;;;14.68;5.05;;;;;;;14.23;67.22;102097.34;5113928;28;20047;-51
2022/07/06 05:14:30;;;;;;;16.60;5.03;;;;;;;14.35;66.13;102090.84;5114520;28;20048;-51
2022/07/06 05:16:57;;;;;;;12.30;4.60;;;;;;;14.17;66.76;102085.41;5114156;28;20130;-50
2022/07/06 05:19:24;;;;;;;13.45;4.57;;;;;;;14.39;66.07;102089.56;5114407;28;20401;-50
2022/07/06 05:21:52;;;;;;;22.77;4.72;;;;;;;14.37;65.95;102099.53;5114324;28;20409;-52
2022/07/06 05:24:18;;;;;;;19.08;5.15;;;;;;;14.31;67.01;102100.13;5114163;28;20078;-51
2022/07/06 05:26:47;;;;;;;13.07;4.43;;;;;;;14.34;66.24;102099.84;5113997;28;20066;-50
2022/07/06 05:29:15;;;;;;;14.88;4.50;;;;;;;14.31;66.64;102102.78;5116646;27;20080;-51
2022/07/06 05:31:43;;;;;;;14.18;4.43;;;;;;;14.34;66.05;102103.34;5115323;27;20501;-49
2022/07/06 05:34:10;;;;;;;15.85;4.95;;;;;;;14.10;67.47;102097.63;5134767;27;20484;-49
2022/07/06 05:36:38;;;;;;;19.25;4.15;;;;;;;14.17;67.43;102099.59;5134800;27;20092;-49
2022/07/06 05:39:05;;;;;;;15.88;4.78;;;;;;;14.12;67.68;102098.38;5134525;27;20061;-50
2022/07/06 05:41:32;;;;;;;11.85;4.20;;;;;;;14.26;67.47;102097.91;5134712;27;20070;-50
2022/07/06 05:44:00;;;;;;;9.63;4.10;;;;;;;14.36;66.31;102096.03;5130650;27;20063;-49
2022/07/06 05:46:28;;;;;;;11.15;4.07;;;;;;;14.37;66.39;102097.72;5133941;27;20547;-52
2022/07/06 05:51:42;;;;;;;16.05;4.13;;;;;;;14.37;66.78;102104.88;5133967;27;20096;-50
2022/07/06 05:54:09;;;;;;;10.90;4.50;;;;;;;14.50;65.77;102099.22;5134331;27;20096;-49
2022/07/06 05:56:35;;;;;;;10.98;4.38;;;;;;;14.41;66.29;102108.94;5134582;27;20093;-52
2022/07/06 05:59:03;;;;;;;13.65;4.30;;;;;;;14.61;65.23;102107.06;5134191;27;20089;-50
2022/07/06 06:01:30;;;;;;;14.05;4.20;;;;;;;14.70;64.78;102108.03;5133805;28;20066;-50
2022/07/06 06:04:07;;;;;;;28.33;4.30;;;;;;;14.83;64.39;102108.50;5133623;28;20039;-49
2022/07/06 06:06:34;;;;;;;14.82;4.10;;;;;;;14.72;64.99;102111.38;5118290;28;20570;-50
2022/07/06 06:09:01;;;;;;;13.82;4.03;;;;;;;14.81;64.81;102114.97;5113680;28;20051;-52
2022/07/06 06:11:27;;;;;;;13.57;3.53;;;;;;;14.81;64.88;102115.84;5121481;28;20129;-54
2022/07/06 06:13:54;;;;;;;11.35;3.63;;;;;;;14.99;64.45;102118.56;5134167;28;20497;-50
2022/07/06 06:16:21;;;;;;;16.95;3.80;;;;;;;15.01;65.04;102121.06;5134089;28;20047;-49
2022/07/06 06:18:48;;;;;;;9.45;3.25;;;;;;;15.08;64.87;102114.97;5134023;28;20057;-52
2022/07/06 06:21:15;;;;;;;12.40;3.60;;;;;;;15.14;64.36;102119.72;5133876;28;20048;-50
2022/07/06 06:23:41;;;;;;;12.55;3.60;;;;;;;15.36;64.49;102112.25;5136228;27;20039;-50
2022/07/06 06:26:08;;;;;;;14.27;2.83;;;;;;;15.48;63.76;102120.88;5119950;27;20039;-51
2022/07/06 06:28:36;;;;;;;15.57;3.13;;;;;;;15.55;63.33;102116.59;5137786;27;20043;-49
2022/07/06 06:31:03;;;;;;;11.55;2.60;;;;;;;15.73;61.73;102117.44;5137434;27;20047;-50
2022/07/06 06:33:29;;;;;;;10.85;3.08;;;;;;;16.01;60.93;102116.50;5138059;27;20039;-49
2022/07/06 06:35:56;;;;;;;11.52;2.88;;;;;;;16.02;61.47;102120.84;5138096;27;20047;-50
2022/07/06 06:38:25;;;;;;;11.98;2.95;;;;;;;16.07;62.04;102119.38;5137875;27;20051;-49
2022/07/06 06:40:53;;;;;;;14.43;3.20;;;;;;;16.25;60.70;102114.00;5137920;27;20047;-49
2022/07/06 06:43:20;;;;;;;11.60;2.70;;;;;;;16.04;60.62;102122.38;5137721;27;20039;-48
2022/07/06 06:46:07;;;;;;;14.05;2.83;;;;;;;16.23;60.14;102123.19;5137506;27;20043;-49
2022/07/06 06:48:34;;;;;;;13.75;2.90;;;;;;;16.33;60.15;102129.25;5137414;27;20485;-50
2022/07/06 06:51:01;;;;;;;10.48;3.00;;;;;;;16.26;60.10;102128.22;5137460;27;20074;-49
2022/07/06 06:53:28;;;;;;;14.30;2.90;;;;;;;16.31;60.38;102124.06;5137348;27;20035;-51
2022/07/06 06:55:55;;;;;;;11.75;3.00;;;;;;;16.43;59.91;102134.53;5123766;27;20082;-50
2022/07/06 06:58:21;;;;;;;10.20;3.03;;;;;;;16.33;60.07;102133.78;5117048;28;20048;-50
2022/07/06 07:00:48;;;;;;;14.85;3.55;;;;;;;16.24;61.13;102135.56;5129617;27;20563;-50
2022/07/06 07:03:15;;;;;;;13.55;2.53;;;;;;;16.14;60.91;102134.84;5137203;27;20104;-52
2022/07/06 07:05:41;;;;;;;16.10;2.30;;;;;;;16.08;59.73;102125.56;5137078;27;20143;-48
2022/07/06 07:08:08;;;;;;;11.18;1.92;;;;;;;16.07;59.79;102135.44;5136987;27;20159;-49
2022/07/06 07:10:35;;;;;;;15.15;2.22;;;;;;;16.16;59.89;102138.19;5126630;27;20097;-50
2022/07/06 07:13:02;;;;;;;9.07;2.22;;;;;;;16.14;60.55;102135.69;5126942;27;20122;-46
2022/07/06 07:15:28;;;;;;;9.88;2.47;;;;;;;16.40;60.22;102145.53;5137283;27;20082;-44
2022/07/06 07:17:55;;;;;;;13.57;2.58;;;;;;;16.41;60.59;102142.72;5137211;27;20460;-46
2022/07/06 07:20:22;;;;;;;12.10;2.38;;;;;;;16.53;59.92;102143.25;5137302;27;20051;-47
2022/07/06 07:22:49;;;;;;;12.98;2.83;;;;;;;16.66;59.25;102141.00;5137225;27;20046;-44
2022/07/06 07:25:16;;;;;;;11.95;2.95;;;;;;;16.74;58.38;102144.72;5137225;27;20055;-45
2022/07/06 07:27:42;;;;;;;15.55;3.22;;;;;;;16.59;58.78;102144.47;5137111;27;20116;-44
2022/07/06 07:30:09;;;;;;;7.13;2.42;;;;;;;16.38;59.86;102142.19;5135834;27;20043;-47
2022/07/06 07:32:36;;;;;;;13.27;2.83;;;;;;;16.30;60.28;102142.97;5136475;27;20066;-45
2022/07/06 07:35:03;;;;;;;11.48;2.50;;;;;;;16.35;60.36;102147.84;5128162;27;20065;-47
2022/07/06 07:37:30;;;;;;;11.00;2.47;;;;;;;16.42;60.21;102151.56;5118422;27;20489;-45
2022/07/06 07:39:58;;;;;;;10.45;2.38;;;;;;;16.55;60.68;102149.28;5116203;28;20500;-44
2022/07/06 07:42:25;;;;;;;11.30;2.40;;;;;;;16.53;59.54;102145.09;5134369;27;20043;-45
2022/07/06 07:44:52;;;;;;;12.95;2.33;;;;;;;16.65;58.99;102144.66;5126828;27;20080;-44
2022/07/06 07:47:19;;;;;;;12.25;2.40;;;;;;;16.64;58.94;102147.50;5116063;28;20399;-46
2022/07/06 07:49:46;;;;;;;9.82;2.35;;;;;;;16.74;58.47;102150.91;5115650;28;20054;-45
2022/07/06 07:52:13;;;;;;;11.27;2.45;;;;;;;16.74;59.01;102158.94;5113439;28;20063;-45
2022/07/06 07:54:39;;;;;;;9.90;2.13;;;;;;;16.81;56.37;102149.28;5115285;28;20071;-46
2022/07/06 07:57:10;;;;;;;9.20;2.30;;;;;;;16.96;56.29;102154.06;5116043;28;20046;-46
2022/07/06 07:59:36;;;;;;;13.18;2.00;;;;;;;17.18;56.36;102150.75;5115855;28;20039;-44
2022/07/06 08:02:03;;;;;;;8.48;1.80;;;;;;;17.04;55.43;102144.19;5115507;28;20409;-46
2022/07/06 08:04:30;;;;;;;8.32;1.65;;;;;;;16.98;55.59;102155.56;5114153;28;20050;-48
2022/07/06 08:06:56;;;;;;;7.40;1.90;;;;;;;16.98;54.25;102147.50;5114946;27;20111;-46
2022/07/06 08:09:26;;;;;;;10.93;1.75;;;;;;;16.96;55.29;102152.22;5115751;28;20092;-46
2022/07/06 08:11:53;;;;;;;10.23;1.90;;;;;;;16.83;56.28;102143.78;5114812;28;20058;-47
2022/07/06 08:14:20;;;;;;;13.00;2.10;;;;;;;16.88;56.68;102153.03;5115344;28;20542;-46
2022/07/06 08:16:47;;;;;;;8.10;1.75;;;;;;;17.21;53.81;102139.72;5115395;28;20044;-47
2022/07/06 08:19:14;;;;;;;9.07;1.70;;;;;;;17.19;55.38;102138.19;5115339;28;20130;-47
2022/07/06 08:21:42;;;;;;;9.43;1.65;;;;;;;17.42;54.38;102131.19;5115172;28;20044;-48
2022/07/06 08:24:09;;;;;;;7.45;1.73;;;;;;;17.53;54.01;102134.56;5115446;28;20168;-46
2022/07/06 08:26:37;;;;;;;11.10;1.73;;;;;;;17.65;54.09;102133.25;5114378;27;20071;-45
2022/07/06 08:29:03;;;;;;;7.82;1.90;;;;;;;17.79;53.36;102137.09;5112753;27;20050;-46
2022/07/06 08:31:31;;;;;;;7.65;1.70;;;;;;;17.70;51.89;102135.41;5114652;28;20058;-47
2022/07/06 08:34:17;;;;;;;13.00;1.70;;;;;;;17.74;52.16;102134.91;5099835;28;20027;-48
2022/07/06 08:36:45;;;;;;;12.15;1.80;;;;;;;17.79;52.24;102139.78;5115041;28;20576;-46
2022/07/06 08:39:12;;;;;;;6.75;1.88;;;;;;;17.67;52.28;102133.91;5115006;28;20489;-47
2022/07/06 08:41:41;;;;;;;11.27;2.10;;;;;;;17.64;52.13;102128.88;5115018;28;20051;-47
2022/07/06 08:44:09;;;;;;;8.40;1.90;;;;;;;17.66;52.60;102126.84;5114488;28;20120;-48
2022/07/06 08:46:39;;;;;;;6.07;1.95;;;;;;;17.55;53.23;102133.38;5113277;28;20113;-46
2022/07/06 08:49:08;;;;;;;9.45;2.00;;;;;;;17.49;52.10;102143.97;5112680;28;20050;-46
2022/07/06 08:51:36;;;;;;;11.15;1.63;;;;;;;17.32;51.58;102143.94;5114128;28;20100;-47
2022/07/06 08:54:03;;;;;;;15.13;1.70;;;;;;;17.34;51.58;102138.41;5114093;28;20039;-46
2022/07/06 08:56:30;;;;;;;7.05;1.50;;;;;;;17.43;51.26;102138.25;5114664;28;20089;-47
2022/07/06 08:58:57;;;;;;;11.13;1.80;;;;;;;17.16;51.58;102133.19;5114862;28;20040;-45
2022/07/06 09:01:24;;;;;;;10.63;1.90;;;;;;;17.07;52.24;102143.84;5114243;28;20075;-47
2022/07/06 09:03:51;;;;;;;7.18;1.70;;;;;;;17.06;53.12;102146.69;5114559;27;20047;-45
2022/07/06 09:06:24;;;;;;;8.43;1.60;;;;;;;17.14;52.64;102148.59;5131496;27;20115;-46
2022/07/06 09:08:54;;;;;;;4.88;1.70;;;;;;;17.25;53.20;102149.09;5113412;28;20040;-45
2022/07/06 09:11:21;;;;;;;7.65;1.85;;;;;;;17.20;51.29;102145.25;5122672;27;20438;-45
2022/07/06 09:13:48;;;;;;;7.95;1.63;;;;;;;17.44;51.68;102153.34;5119974;27;20066;-47
2022/07/06 09:16:17;;;;;;;6.70;1.60;;;;;;;17.67;51.28;102143.81;5114219;28;20044;-45
2022/07/06 09:19:05;;;;;;;9.60;1.60;;;;;;;17.62;50.76;102147.81;5098730;28;20044;-45
2022/07/06 09:21:32;;;;;;;4.55;1.60;;;;;;;17.54;50.60;102133.59;5115697;27;20381;-45
2022/07/06 09:24:02;;;;;;;7.40;1.60;;;;;;;17.61;50.09;102129.22;5133830;27;20039;-46
2022/07/06 09:26:29;;;;;;;7.53;1.90;;;;;;;18.06;49.35;102127.03;5133359;27;20133;-46
2022/07/06 09:28:59;;;;;;;6.18;1.55;;;;;;;18.21;48.34;102120.81;5118522;27;20051;-45
2022/07/06 09:31:26;;;;;;;6.65;1.67;;;;;;;18.00;46.65;102129.41;5111464;28;20044;-49
2022/07/06 09:33:59;;;;;;;14.38;2.05;;;;;;;18.11;48.22;102130.06;5114790;27;20043;-45
2022/07/06 09:36:44;;;;;;;6.28;1.63;;;;;;;18.25;47.90;102128.53;5113009;28;20052;-46
2022/07/06 09:39:23;;;;;;;8.38;1.88;;;;;;;18.50;47.68;102134.66;5112598;28;20105;-45
2022/07/06 09:41:52;;;;;;;9.55;1.95;;;;;;;18.46;47.71;102126.09;5093595;28;20135;-48
2022/07/06 09:44:24;;;;;;;9.98;1.80;;;;;;;18.42;47.18;102125.63;5116950;27;20039;-46
2022/07/06 09:46:52;;;;;;;9.35;1.90;;;;;;;18.65;47.63;102127.56;5115607;27;20105;-49
2022/07/06 09:49:20;;;;;;;8.80;1.80;;;;;;;18.72;45.57;102135.75;5112820;28;20451;-44
2022/07/06 09:51:50;;;;;;;6.82;1.80;;;;;;;18.74;46.11;102128.38;5124687;27;20107;-44
2022/07/06 09:54:17;;;;;;;8.30;2.10;;;;;;;18.59;46.74;102125.56;5116899;27;20058;-44
2022/07/06 09:56:50;;;;;;;6.07;1.92;;;;;;;18.66;47.30;102120.34;5133561;27;20047;-44
2022/07/06 09:59:22;;;;;;;7.60;1.70;;;;;;;18.91;47.91;102121.09;5133705;27;20051;-46
2022/07/06 10:01:52;;;;;;;9.02;1.80;;;;;;;19.39;45.62;102111.03;5123898;27;20055;-44
2022/07/06 10:04:20;;;;;;;14.15;2.13;;;;;;;19.45;44.61;102120.28;5112148;28;20039;-46
2022/07/06 10:06:47;;;;;;;9.35;1.75;;;;;;;19.58;43.45;102125.06;5115558;28;20043;-45
2022/07/06 10:09:15;;;;;;;7.18;1.80;;;;;;;19.88;43.50;102126.84;5112931;28;20504;-45
2022/07/06 10:11:50;;;;;;;10.43;1.83;;;;;;;19.93;40.77;102129.81;5112770;28;20051;-45
2022/07/06 10:14:21;;;;;;;6.47;1.70;;;;;;;19.91;41.34;102125.66;5125498;28;20401;-45
2022/07/06 10:16:49;;;;;;;6.78;1.83;;;;;;;19.80;42.68;102120.69;5112912;28;20044;-44
2022/07/06 10:19:18;;;;;;;9.48;1.80;;;;;;;19.97;42.54;102129.47;5112699;28;20063;-46
2022/07/06 10:21:45;;;;;;;8.88;1.85;;;;;;;20.01;41.41;102120.84;5112029;28;20051;-45
2022/07/06 10:24:12;;;;;;;7.63;1.60;;;;;;;20.03;40.01;102118.81;5115459;28;20050;-45
2022/07/06 10:26:40;;;;;;;9.25;1.70;;;;;;;20.20;40.38;102119.47;5127998;28;20131;-46
2022/07/06 10:29:07;;;;;;;8.50;1.73;;;;;;;20.27;40.91;102125.78;5132875;28;20047;-45
2022/07/06 10:31:39;;;;;;;5.63;1.80;;;;;;;20.40;40.24;102124.31;5118542;28;20044;-47
2022/07/06 10:34:10;;;;;;;7.32;1.90;;;;;;;20.02;39.69;102118.97;5118313;28;20047;-47
2022/07/06 10:36:39;;;;;;;11.23;2.00;;;;;;;20.10;40.07;102117.06;5120357;28;20043;-45
2022/07/06 10:41:02;;;;;;;5.53;1.80;;;;;;;19.97;39.67;102116.00;5107071;28;20412;-56
2022/07/06 10:41:54;;;;;;;7.60;1.60;;;;;;;20.29;40.11;102120.22;5121968;28;20122;-47
2022/07/06 10:44:24;;;;;;;8.90;1.77;;;;;;;20.45;39.48;102113.81;5131689;28;20040;-51
2022/07/06 10:46:53;;;;;;;11.32;1.80;;;;;;;20.40;39.83;102118.94;5121066;28;20054;-48
2022/07/06 10:49:21;;;;;;;7.95;1.88;;;;;;;20.23;38.79;102120.94;5113648;28;20051;-44
2022/07/06 10:52:01;;;;;;;;;;;;;;;20.25;39.64;102118.94;5131088;28;20067;-44
2022/07/06 10:54:39;;;;;;;13.88;1.88;;;;;;;20.74;39.48;102122.91;5115302;28;19997;-45
2022/07/06 10:57:10;;;;;;;9.10;1.80;;;;;;;20.39;39.46;102107.31;5121585;28;20134;-45
2022/07/06 10:59:37;;;;;;;8.80;1.73;;;;;;;20.41;40.09;102116.03;5122173;28;20088;-44
2022/07/06 11:02:18;;;;;;;7.35;1.95;;;;;;;20.65;38.70;102109.56;5117192;28;20087;-44
2022/07/06 11:04:47;;;;;;;6.70;1.80;;;;;;;20.98;38.35;102106.41;5112775;28;20054;-47
2022/07/06 11:07:17;;;;;;;9.98;1.90;;;;;;;21.32;38.07;102104.91;5130332;28;20043;-47
2022/07/06 11:09:59;;;;;;;6.30;1.90;;;;;;;21.37;38.77;102107.84;5129798;27;20052;-43
2022/07/06 11:12:26;;;;;;;8.38;1.77;;;;;;;21.62;38.27;102096.69;5124088;27;20071;-47
2022/07/06 11:14:54;;;;;;;6.63;1.80;;;;;;;21.64;37.58;102097.34;5116419;27;20039;-45
2022/07/06 11:17:21;;;;;;;10.00;2.25;;;;;;;21.26;38.67;102113.75;5115404;27;20053;-47
2022/07/06 11:19:50;;;;;;;10.15;2.05;;;;;;;21.42;37.86;102116.22;5115306;27;20040;-47
2022/07/06 11:22:19;;;;;;;8.45;2.20;;;;;;;20.96;38.69;102107.66;5105672;27;20395;-47
2022/07/06 11:24:47;;;;;;;7.35;1.90;;;;;;;20.95;38.80;102109.47;5119076;27;20097;-45
2022/07/06 11:27:14;;;;;;;8.50;2.22;;;;;;;20.74;39.38;102104.03;5125891;27;20099;-47